St. Johns River — WDD9610 — position and weather

sailwx.info

Track history (hours):
 
Tides and Currents Weather Stations Pressure Air Temp Water Temp Dewpoint Dewpoint Depression Visibility Wind Speed Wind Dir Waves Ship Positions

St. Johns River

Owner: Great Lakes Dredge & Dock Company, LLC., Oak Brook, IL. More information available from US FCC via Universal Licensing System and Coast Guard Vessel Documentation Center.

Last reported at 2018-May-10 15:32 UTC. Time now 2018-May-25 01:17 UTC.
Position N 31°51' W 080°51'.
Warning: this ship's position is 14 days out of date.

Length 19 m; draft 3.1 m.

Type: Port tender. MMSI: 367313760.

Date/timePositionNaut miles runAvg speedWind from/ knotsBaromVisibWave heightAir tempDewpointWater temp
2018-May-10 15:32N 31°51' W 080°51'117.3
2018-May-10 15:30N 31°51' W 080°51'14 5.0
2018-May-10 12:38N 32°04' W 080°59'1 9.9
2018-May-10 12:30N 32°04' W 081°01'3 6.4
2018-May-10 11:59N 32°02' W 081°03'0 0.7
2018-May-10 11:30N 32°01' W 081°03'  
2018-May-06 16:14N 32°01' W 081°03'0 0.0
2018-May-05 00:12N 32°01' W 081°03'0 0.0
2018-May-04 23:50N 32°01' W 081°03'0 0.0
2018-May-04 22:56N 32°01' W 081°03'0 0.0
2018-May-04 22:30N 32°01' W 081°03'0 0.0
2018-May-04 22:00N 32°01' W 081°03'0 0.0
2018-May-04 17:37N 32°01' W 081°03'0 0.0
2018-May-04 17:30N 32°01' W 081°03'1 2.8
2018-May-04 17:00N 32°01' W 081°01'611.5
2018-May-04 16:30N 31°56' W 080°58'0 0.6
2018-May-04 16:00N 31°56' W 080°58'1 2.3
2018-May-04 15:30N 31°57' W 080°59'611.7
2018-May-04 15:00N 32°01' W 081°03'  
Track history (hours):
 
Tides and Currents Weather Stations Pressure Air Temp Water Temp Dewpoint Dewpoint Depression Visibility Wind Speed Wind Dir Waves Ship Positions

St. Johns River

Owner: Great Lakes Dredge & Dock Company, LLC., Oak Brook, IL. More information available from US FCC via Universal Licensing System and Coast Guard Vessel Documentation Center.

Last reported at 2018-May-10 15:32 UTC. Time now 2018-May-25 01:17 UTC.
Position N 31°51' W 080°51'.
Warning: this ship's position is 14 days out of date.

Length 19 m; draft 3.1 m.

Type: Port tender. MMSI: 367313760.

Date/timePositionNaut miles runAvg speedWind from/ knotsBaromVisibWave heightAir tempDewpointWater temp
2018-May-10 15:32N 31°51' W 080°51'117.3
2018-May-10 15:30N 31°51' W 080°51'14 5.0
2018-May-10 12:38N 32°04' W 080°59'1 9.9
2018-May-10 12:30N 32°04' W 081°01'3 6.4
2018-May-10 11:59N 32°02' W 081°03'0 0.7
2018-May-10 11:30N 32°01' W 081°03'  
2018-May-06 16:14N 32°01' W 081°03'0 0.0
2018-May-05 00:12N 32°01' W 081°03'0 0.0
2018-May-04 23:50N 32°01' W 081°03'0 0.0
2018-May-04 22:56N 32°01' W 081°03'0 0.0
2018-May-04 22:30N 32°01' W 081°03'0 0.0
2018-May-04 22:00N 32°01' W 081°03'0 0.0
2018-May-04 17:37N 32°01' W 081°03'0 0.0
2018-May-04 17:30N 32°01' W 081°03'1 2.8
2018-May-04 17:00N 32°01' W 081°01'611.5
2018-May-04 16:30N 31°56' W 080°58'0 0.6
2018-May-04 16:00N 31°56' W 080°58'1 2.3
2018-May-04 15:30N 31°57' W 080°59'611.7
2018-May-04 15:00N 32°01' W 081°03'  

Dump ship's entire track history